sensor_id;sensor_type;location;lat;lon;timestamp;temperature;humidity
38020;DHT22;23829;51.350;17.286;2023-07-13T00:01:59;33.00;46.10
38020;DHT22;23829;51.350;17.286;2023-07-13T00:04:25;33.20;45.40
38020;DHT22;23829;51.350;17.286;2023-07-13T00:06:52;33.10;46.00
38020;DHT22;23829;51.350;17.286;2023-07-13T00:09:19;33.10;45.70
38020;DHT22;23829;51.350;17.286;2023-07-13T00:11:53;32.90;45.90
38020;DHT22;23829;51.350;17.286;2023-07-13T00:14:19;33.00;45.80
38020;DHT22;23829;51.350;17.286;2023-07-13T00:16:46;32.90;46.00
38020;DHT22;23829;51.350;17.286;2023-07-13T00:19:13;32.80;46.30
38020;DHT22;23829;51.350;17.286;2023-07-13T00:21:40;32.70;46.40
38020;DHT22;23829;51.350;17.286;2023-07-13T00:24:16;32.60;46.60
38020;DHT22;23829;51.350;17.286;2023-07-13T00:26:49;32.60;46.40
38020;DHT22;23829;51.350;17.286;2023-07-13T00:29:15;32.80;45.60
38020;DHT22;23829;51.350;17.286;2023-07-13T00:31:42;32.80;45.50
38020;DHT22;23829;51.350;17.286;2023-07-13T00:34:09;32.80;45.20
38020;DHT22;23829;51.350;17.286;2023-07-13T00:36:36;32.90;45.00
38020;DHT22;23829;51.350;17.286;2023-07-13T00:39:02;32.80;45.10
38020;DHT22;23829;51.350;17.286;2023-07-13T00:41:32;32.70;45.60
38020;DHT22;23829;51.350;17.286;2023-07-13T00:43:58;32.70;45.20
38020;DHT22;23829;51.350;17.286;2023-07-13T00:46:31;32.70;45.00
38020;DHT22;23829;51.350;17.286;2023-07-13T00:49:05;32.80;44.80
38020;DHT22;23829;51.350;17.286;2023-07-13T00:51:52;32.60;45.20
38020;DHT22;23829;51.350;17.286;2023-07-13T00:54:24;32.50;45.20
38020;DHT22;23829;51.350;17.286;2023-07-13T00:56:56;32.50;45.00
38020;DHT22;23829;51.350;17.286;2023-07-13T00:59:24;32.50;44.80
38020;DHT22;23829;51.350;17.286;2023-07-13T01:01:50;32.60;44.60
38020;DHT22;23829;51.350;17.286;2023-07-13T01:04:17;32.50;44.60
38020;DHT22;23829;51.350;17.286;2023-07-13T01:06:45;32.40;45.20
38020;DHT22;23829;51.350;17.286;2023-07-13T01:09:13;32.30;45.50
38020;DHT22;23829;51.350;17.286;2023-07-13T01:11:40;32.20;45.50
38020;DHT22;23829;51.350;17.286;2023-07-13T01:14:07;32.30;45.20
38020;DHT22;23829;51.350;17.286;2023-07-13T01:16:35;32.30;44.90
38020;DHT22;23829;51.350;17.286;2023-07-13T01:19:07;32.10;44.90
38020;DHT22;23829;51.350;17.286;2023-07-13T01:21:35;32.10;44.70
38020;DHT22;23829;51.350;17.286;2023-07-13T01:24:02;32.10;45.00
38020;DHT22;23829;51.350;17.286;2023-07-13T01:26:28;32.00;45.30
38020;DHT22;23829;51.350;17.286;2023-07-13T01:28:54;31.90;45.40
38020;DHT22;23829;51.350;17.286;2023-07-13T01:31:22;31.80;45.60
38020;DHT22;23829;51.350;17.286;2023-07-13T01:33:48;31.90;45.10
38020;DHT22;23829;51.350;17.286;2023-07-13T01:36:15;32.00;44.50
38020;DHT22;23829;51.350;17.286;2023-07-13T01:38:41;32.00;44.40
38020;DHT22;23829;51.350;17.286;2023-07-13T01:41:07;32.00;44.10
38020;DHT22;23829;51.350;17.286;2023-07-13T01:43:34;32.10;44.00
38020;DHT22;23829;51.350;17.286;2023-07-13T01:46:00;32.00;43.70
38020;DHT22;23829;51.350;17.286;2023-07-13T01:48:26;32.00;43.60
38020;DHT22;23829;51.350;17.286;2023-07-13T01:50:53;32.00;43.90
38020;DHT22;23829;51.350;17.286;2023-07-13T01:53:19;31.90;43.90
38020;DHT22;23829;51.350;17.286;2023-07-13T01:55:45;31.80;44.10
38020;DHT22;23829;51.350;17.286;2023-07-13T01:58:11;31.80;44.20
38020;DHT22;23829;51.350;17.286;2023-07-13T02:00:39;31.80;44.00
38020;DHT22;23829;51.350;17.286;2023-07-13T02:03:05;31.80;43.90
38020;DHT22;23829;51.350;17.286;2023-07-13T02:05:32;31.70;44.10
38020;DHT22;23829;51.350;17.286;2023-07-13T02:07:58;31.60;44.30
38020;DHT22;23829;51.350;17.286;2023-07-13T02:10:25;31.40;44.70
38020;DHT22;23829;51.350;17.286;2023-07-13T02:12:51;31.50;44.60
38020;DHT22;23829;51.350;17.286;2023-07-13T02:15:18;31.70;44.10
38020;DHT22;23829;51.350;17.286;2023-07-13T02:17:44;31.60;43.80
38020;DHT22;23829;51.350;17.286;2023-07-13T02:20:10;31.60;43.80
38020;DHT22;23829;51.350;17.286;2023-07-13T02:22:37;31.60;43.80
38020;DHT22;23829;51.350;17.286;2023-07-13T02:25:03;31.50;43.90
38020;DHT22;23829;51.350;17.286;2023-07-13T02:27:29;31.60;43.70
38020;DHT22;23829;51.350;17.286;2023-07-13T02:29:56;31.60;43.70
38020;DHT22;23829;51.350;17.286;2023-07-13T02:32:22;31.70;44.40
38020;DHT22;23829;51.350;17.286;2023-07-13T02:34:52;31.50;43.70
38020;DHT22;23829;51.350;17.286;2023-07-13T02:37:19;31.40;44.00
38020;DHT22;23829;51.350;17.286;2023-07-13T02:39:45;31.40;43.90
38020;DHT22;23829;51.350;17.286;2023-07-13T02:42:11;31.40;43.80
38020;DHT22;23829;51.350;17.286;2023-07-13T02:44:38;31.30;44.10
38020;DHT22;23829;51.350;17.286;2023-07-13T02:47:04;31.40;43.80
38020;DHT22;23829;51.350;17.286;2023-07-13T02:49:31;31.40;43.40
38020;DHT22;23829;51.350;17.286;2023-07-13T02:51:58;31.40;43.60
38020;DHT22;23829;51.350;17.286;2023-07-13T02:54:24;31.30;43.60
38020;DHT22;23829;51.350;17.286;2023-07-13T02:56:51;31.40;43.30
38020;DHT22;23829;51.350;17.286;2023-07-13T02:59:17;31.40;43.30
38020;DHT22;23829;51.350;17.286;2023-07-13T03:01:43;31.30;43.40
38020;DHT22;23829;51.350;17.286;2023-07-13T03:04:11;31.20;43.90
38020;DHT22;23829;51.350;17.286;2023-07-13T03:06:38;31.30;43.50
38020;DHT22;23829;51.350;17.286;2023-07-13T03:09:05;31.20;43.40
38020;DHT22;23829;51.350;17.286;2023-07-13T03:11:34;31.30;43.30
38020;DHT22;23829;51.350;17.286;2023-07-13T03:14:10;31.50;42.70
38020;DHT22;23829;51.350;17.286;2023-07-13T03:16:38;31.50;42.60
38020;DHT22;23829;51.350;17.286;2023-07-13T03:19:04;31.30;43.10
38020;DHT22;23829;51.350;17.286;2023-07-13T03:21:31;31.20;43.00
38020;DHT22;23829;51.350;17.286;2023-07-13T03:23:57;31.10;43.50
38020;DHT22;23829;51.350;17.286;2023-07-13T03:26:24;31.10;43.50
38020;DHT22;23829;51.350;17.286;2023-07-13T03:28:50;31.20;43.70
38020;DHT22;23829;51.350;17.286;2023-07-13T03:31:23;31.00;43.90
38020;DHT22;23829;51.350;17.286;2023-07-13T03:33:50;31.00;44.00
38020;DHT22;23829;51.350;17.286;2023-07-13T03:36:20;31.00;44.10
38020;DHT22;23829;51.350;17.286;2023-07-13T03:38:51;31.10;43.90
38020;DHT22;23829;51.350;17.286;2023-07-13T03:41:22;31.10;44.10
38020;DHT22;23829;51.350;17.286;2023-07-13T03:43:51;31.10;44.20
38020;DHT22;23829;51.350;17.286;2023-07-13T03:46:20;31.10;44.40
38020;DHT22;23829;51.350;17.286;2023-07-13T03:48:47;31.10;44.50
38020;DHT22;23829;51.350;17.286;2023-07-13T03:51:15;31.00;44.40
38020;DHT22;23829;51.350;17.286;2023-07-13T03:53:43;31.10;44.80
38020;DHT22;23829;51.350;17.286;2023-07-13T03:56:12;31.20;45.20
38020;DHT22;23829;51.350;17.286;2023-07-13T03:58:43;31.20;45.20
38020;DHT22;23829;51.350;17.286;2023-07-13T04:01:23;31.40;45.00
38020;DHT22;23829;51.350;17.286;2023-07-13T04:03:51;31.50;45.10
38020;DHT22;23829;51.350;17.286;2023-07-13T04:06:23;31.30;45.10
38020;DHT22;23829;51.350;17.286;2023-07-13T04:08:53;31.30;45.30
38020;DHT22;23829;51.350;17.286;2023-07-13T04:11:21;31.40;45.60
38020;DHT22;23829;51.350;17.286;2023-07-13T04:13:48;31.40;45.50
38020;DHT22;23829;51.350;17.286;2023-07-13T04:16:16;31.40;45.70
38020;DHT22;23829;51.350;17.286;2023-07-13T04:18:42;31.40;45.70
38020;DHT22;23829;51.350;17.286;2023-07-13T04:21:09;31.40;45.80
38020;DHT22;23829;51.350;17.286;2023-07-13T04:23:37;31.40;46.10
38020;DHT22;23829;51.350;17.286;2023-07-13T04:26:04;31.60;45.90
38020;DHT22;23829;51.350;17.286;2023-07-13T04:28:30;31.60;45.60
38020;DHT22;23829;51.350;17.286;2023-07-13T04:30:57;31.70;45.90
38020;DHT22;23829;51.350;17.286;2023-07-13T04:33:24;31.50;46.10
38020;DHT22;23829;51.350;17.286;2023-07-13T04:35:51;31.60;46.20
38020;DHT22;23829;51.350;17.286;2023-07-13T04:38:28;31.80;45.90
38020;DHT22;23829;51.350;17.286;2023-07-13T04:41:00;31.40;45.10
38020;DHT22;23829;51.350;17.286;2023-07-13T04:43:28;31.50;45.80
38020;DHT22;23829;51.350;17.286;2023-07-13T04:45:54;31.60;45.70
38020;DHT22;23829;51.350;17.286;2023-07-13T04:48:21;31.30;45.80
38020;DHT22;23829;51.350;17.286;2023-07-13T04:50:53;31.20;46.00
38020;DHT22;23829;51.350;17.286;2023-07-13T04:53:20;30.60;46.90
38020;DHT22;23829;51.350;17.286;2023-07-13T04:55:46;30.50;47.30
38020;DHT22;23829;51.350;17.286;2023-07-13T04:58:13;30.40;46.90
38020;DHT22;23829;51.350;17.286;2023-07-13T05:00:39;30.30;47.10
38020;DHT22;23829;51.350;17.286;2023-07-13T05:03:06;30.40;46.90
38020;DHT22;23829;51.350;17.286;2023-07-13T05:05:32;30.60;46.40
38020;DHT22;23829;51.350;17.286;2023-07-13T05:07:58;30.60;46.60
38020;DHT22;23829;51.350;17.286;2023-07-13T05:10:25;30.40;46.50
38020;DHT22;23829;51.350;17.286;2023-07-13T05:12:51;30.30;46.70
38020;DHT22;23829;51.350;17.286;2023-07-13T05:15:20;30.50;46.60
38020;DHT22;23829;51.350;17.286;2023-07-13T05:17:48;30.50;46.80
38020;DHT22;23829;51.350;17.286;2023-07-13T05:20:15;30.70;46.20
38020;DHT22;23829;51.350;17.286;2023-07-13T05:22:42;31.00;45.80
38020;DHT22;23829;51.350;17.286;2023-07-13T05:25:09;31.10;45.10
38020;DHT22;23829;51.350;17.286;2023-07-13T05:27:36;30.90;45.40
38020;DHT22;23829;51.350;17.286;2023-07-13T05:30:03;30.70;45.60
38020;DHT22;23829;51.350;17.286;2023-07-13T05:32:30;30.60;45.50
38020;DHT22;23829;51.350;17.286;2023-07-13T05:34:56;30.70;45.60
38020;DHT22;23829;51.350;17.286;2023-07-13T05:37:23;30.70;45.90
38020;DHT22;23829;51.350;17.286;2023-07-13T05:39:49;30.80;45.50
38020;DHT22;23829;51.350;17.286;2023-07-13T05:42:16;30.90;45.20
38020;DHT22;23829;51.350;17.286;2023-07-13T05:44:42;31.00;44.90
38020;DHT22;23829;51.350;17.286;2023-07-13T05:47:08;30.80;45.30
38020;DHT22;23829;51.350;17.286;2023-07-13T05:49:34;31.00;45.40
38020;DHT22;23829;51.350;17.286;2023-07-13T05:52:01;31.20;44.70
38020;DHT22;23829;51.350;17.286;2023-07-13T05:54:27;31.10;44.80
38020;DHT22;23829;51.350;17.286;2023-07-13T05:56:54;31.20;44.70
38020;DHT22;23829;51.350;17.286;2023-07-13T05:59:20;31.00;45.30
38020;DHT22;23829;51.350;17.286;2023-07-13T06:01:46;30.90;45.90
38020;DHT22;23829;51.350;17.286;2023-07-13T06:04:14;30.90;45.70
38020;DHT22;23829;51.350;17.286;2023-07-13T06:06:43;30.70;45.90
38020;DHT22;23829;51.350;17.286;2023-07-13T06:09:10;30.80;45.60
38020;DHT22;23829;51.350;17.286;2023-07-13T06:11:36;30.80;45.70
38020;DHT22;23829;51.350;17.286;2023-07-13T06:14:03;30.70;45.60
38020;DHT22;23829;51.350;17.286;2023-07-13T06:16:30;30.40;46.40
38020;DHT22;23829;51.350;17.286;2023-07-13T06:18:56;30.20;46.80
38020;DHT22;23829;51.350;17.286;2023-07-13T06:21:23;30.20;47.10
38020;DHT22;23829;51.350;17.286;2023-07-13T06:23:51;30.20;47.30
38020;DHT22;23829;51.350;17.286;2023-07-13T06:26:19;30.30;47.30
38020;DHT22;23829;51.350;17.286;2023-07-13T06:28:45;30.20;47.50
38020;DHT22;23829;51.350;17.286;2023-07-13T06:31:14;30.20;47.40
38020;DHT22;23829;51.350;17.286;2023-07-13T06:33:40;30.70;47.50
38020;DHT22;23829;51.350;17.286;2023-07-13T06:36:08;31.10;46.90
38020;DHT22;23829;51.350;17.286;2023-07-13T06:38:35;31.10;46.30
38020;DHT22;23829;51.350;17.286;2023-07-13T06:41:01;31.20;45.90
38020;DHT22;23829;51.350;17.286;2023-07-13T06:43:28;31.20;46.40
38020;DHT22;23829;51.350;17.286;2023-07-13T06:45:55;31.20;46.50
38020;DHT22;23829;51.350;17.286;2023-07-13T06:48:22;31.20;46.30
38020;DHT22;23829;51.350;17.286;2023-07-13T06:50:49;31.30;46.50
38020;DHT22;23829;51.350;17.286;2023-07-13T06:53:18;31.10;46.30
38020;DHT22;23829;51.350;17.286;2023-07-13T06:55:45;30.90;46.70
38020;DHT22;23829;51.350;17.286;2023-07-13T06:58:12;31.20;46.60
38020;DHT22;23829;51.350;17.286;2023-07-13T07:00:39;31.30;47.50
38020;DHT22;23829;51.350;17.286;2023-07-13T07:03:06;31.60;46.70
38020;DHT22;23829;51.350;17.286;2023-07-13T07:05:33;31.40;46.30
38020;DHT22;23829;51.350;17.286;2023-07-13T07:07:59;31.50;46.40
38020;DHT22;23829;51.350;17.286;2023-07-13T07:10:28;31.70;46.10
38020;DHT22;23829;51.350;17.286;2023-07-13T07:12:54;31.50;46.10
38020;DHT22;23829;51.350;17.286;2023-07-13T07:15:21;31.40;46.40
38020;DHT22;23829;51.350;17.286;2023-07-13T07:17:47;31.50;46.40
38020;DHT22;23829;51.350;17.286;2023-07-13T07:20:14;31.60;46.20
38020;DHT22;23829;51.350;17.286;2023-07-13T07:22:40;32.20;45.50
38020;DHT22;23829;51.350;17.286;2023-07-13T07:25:07;32.40;46.30
38020;DHT22;23829;51.350;17.286;2023-07-13T07:27:33;32.70;45.10
38020;DHT22;23829;51.350;17.286;2023-07-13T07:30:00;32.80;45.10
38020;DHT22;23829;51.350;17.286;2023-07-13T07:32:29;32.70;45.40
38020;DHT22;23829;51.350;17.286;2023-07-13T07:34:57;32.70;45.60
38020;DHT22;23829;51.350;17.286;2023-07-13T07:37:24;32.70;45.60
38020;DHT22;23829;51.350;17.286;2023-07-13T07:39:51;32.70;45.60
38020;DHT22;23829;51.350;17.286;2023-07-13T07:42:17;32.40;45.70
38020;DHT22;23829;51.350;17.286;2023-07-13T07:44:43;32.40;46.40
38020;DHT22;23829;51.350;17.286;2023-07-13T07:47:09;32.40;46.10
38020;DHT22;23829;51.350;17.286;2023-07-13T07:49:37;32.40;46.20
38020;DHT22;23829;51.350;17.286;2023-07-13T07:52:04;32.40;46.20
38020;DHT22;23829;51.350;17.286;2023-07-13T07:54:31;32.40;46.20
38020;DHT22;23829;51.350;17.286;2023-07-13T07:56:57;32.50;46.40
38020;DHT22;23829;51.350;17.286;2023-07-13T07:59:23;32.50;46.10
38020;DHT22;23829;51.350;17.286;2023-07-13T08:01:49;32.30;45.70
38020;DHT22;23829;51.350;17.286;2023-07-13T08:04:16;32.60;45.40
38020;DHT22;23829;51.350;17.286;2023-07-13T08:06:43;32.40;46.00
38020;DHT22;23829;51.350;17.286;2023-07-13T08:09:09;32.20;46.10
38020;DHT22;23829;51.350;17.286;2023-07-13T08:11:36;32.10;46.80
38020;DHT22;23829;51.350;17.286;2023-07-13T08:14:02;32.00;46.60
38020;DHT22;23829;51.350;17.286;2023-07-13T08:16:29;31.90;46.90
38020;DHT22;23829;51.350;17.286;2023-07-13T08:18:55;31.90;47.00
38020;DHT22;23829;51.350;17.286;2023-07-13T08:21:22;31.40;47.60
38020;DHT22;23829;51.350;17.286;2023-07-13T08:23:49;31.70;46.70
38020;DHT22;23829;51.350;17.286;2023-07-13T08:26:15;31.70;47.10
38020;DHT22;23829;51.350;17.286;2023-07-13T08:28:42;32.00;46.10
38020;DHT22;23829;51.350;17.286;2023-07-13T08:31:08;31.80;47.20
38020;DHT22;23829;51.350;17.286;2023-07-13T08:33:36;31.90;46.80
38020;DHT22;23829;51.350;17.286;2023-07-13T08:36:02;32.10;47.00
38020;DHT22;23829;51.350;17.286;2023-07-13T08:38:29;32.30;47.00
38020;DHT22;23829;51.350;17.286;2023-07-13T08:40:56;32.40;46.60
38020;DHT22;23829;51.350;17.286;2023-07-13T08:43:28;32.40;46.60
38020;DHT22;23829;51.350;17.286;2023-07-13T08:51:22;32.90;46.90
38020;DHT22;23829;51.350;17.286;2023-07-13T08:53:54;33.00;47.00
38020;DHT22;23829;51.350;17.286;2023-07-13T08:56:28;33.20;46.50
38020;DHT22;23829;51.350;17.286;2023-07-13T08:59:02;33.40;46.20
38020;DHT22;23829;51.350;17.286;2023-07-13T09:04:28;33.90;45.80
38020;DHT22;23829;51.350;17.286;2023-07-13T09:13:20;34.20;45.10
38020;DHT22;23829;51.350;17.286;2023-07-13T09:15:45;34.20;44.80
38020;DHT22;23829;51.350;17.286;2023-07-13T09:19:04;34.20;44.50
38020;DHT22;23829;51.350;17.286;2023-07-13T09:21:32;34.10;45.20
38020;DHT22;23829;51.350;17.286;2023-07-13T09:24:19;33.90;45.50
38020;DHT22;23829;51.350;17.286;2023-07-13T09:26:47;34.00;45.80
38020;DHT22;23829;51.350;17.286;2023-07-13T09:29:29;33.70;46.50
38020;DHT22;23829;51.350;17.286;2023-07-13T09:32:01;33.50;46.80
38020;DHT22;23829;51.350;17.286;2023-07-13T09:34:28;33.60;46.70
38020;DHT22;23829;51.350;17.286;2023-07-13T09:36:56;33.80;46.90
38020;DHT22;23829;51.350;17.286;2023-07-13T09:39:44;34.00;46.20
38020;DHT22;23829;51.350;17.286;2023-07-13T09:44:50;34.10;46.20
38020;DHT22;23829;51.350;17.286;2023-07-13T09:48:04;34.10;46.10
38020;DHT22;23829;51.350;17.286;2023-07-13T09:50:15;34.10;46.20
38020;DHT22;23829;51.350;17.286;2023-07-13T09:52:50;34.50;44.30
38020;DHT22;23829;51.350;17.286;2023-07-13T09:55:38;35.00;44.20
38020;DHT22;23829;51.350;17.286;2023-07-13T09:58:22;35.50;42.90
38020;DHT22;23829;51.350;17.286;2023-07-13T10:01:07;35.30;41.80
38020;DHT22;23829;51.350;17.286;2023-07-13T10:03:35;35.40;42.40
38020;DHT22;23829;51.350;17.286;2023-07-13T10:06:12;35.40;42.40
38020;DHT22;23829;51.350;17.286;2023-07-13T10:08:40;35.30;42.70
38020;DHT22;23829;51.350;17.286;2023-07-13T10:11:14;35.20;43.30
38020;DHT22;23829;51.350;17.286;2023-07-13T10:13:51;35.10;43.60
38020;DHT22;23829;51.350;17.286;2023-07-13T10:16:17;35.00;43.80
38020;DHT22;23829;51.350;17.286;2023-07-13T10:18:49;35.00;44.30
38020;DHT22;23829;51.350;17.286;2023-07-13T10:21:19;35.40;43.50
38020;DHT22;23829;51.350;17.286;2023-07-13T10:23:53;35.80;41.80
38020;DHT22;23829;51.350;17.286;2023-07-13T10:26:27;36.00;41.80
38020;DHT22;23829;51.350;17.286;2023-07-13T10:29:01;35.80;41.60
38020;DHT22;23829;51.350;17.286;2023-07-13T10:31:27;35.60;42.10
38020;DHT22;23829;51.350;17.286;2023-07-13T10:33:54;35.80;40.60
38020;DHT22;23829;51.350;17.286;2023-07-13T10:36:33;36.00;41.10
38020;DHT22;23829;51.350;17.286;2023-07-13T10:39:03;35.80;41.60
38020;DHT22;23829;51.350;17.286;2023-07-13T10:41:33;36.20;41.70
38020;DHT22;23829;51.350;17.286;2023-07-13T10:44:01;36.00;40.40
38020;DHT22;23829;51.350;17.286;2023-07-13T10:46:29;36.10;41.30
38020;DHT22;23829;51.350;17.286;2023-07-13T10:49:02;35.80;40.90
38020;DHT22;23829;51.350;17.286;2023-07-13T10:51:30;35.90;42.80
38020;DHT22;23829;51.350;17.286;2023-07-13T10:54:20;35.90;43.90
38020;DHT22;23829;51.350;17.286;2023-07-13T10:57:16;35.80;42.60
38020;DHT22;23829;51.350;17.286;2023-07-13T11:02:30;36.30;42.10
38020;DHT22;23829;51.350;17.286;2023-07-13T11:04:57;36.30;40.10
38020;DHT22;23829;51.350;17.286;2023-07-13T11:07:31;36.00;41.40
38020;DHT22;23829;51.350;17.286;2023-07-13T11:11:37;35.90;42.00
38020;DHT22;23829;51.350;17.286;2023-07-13T11:24:58;36.00;40.40
38020;DHT22;23829;51.350;17.286;2023-07-13T11:36:03;36.30;39.40
38020;DHT22;23829;51.350;17.286;2023-07-13T11:38:39;36.10;39.90
38020;DHT22;23829;51.350;17.286;2023-07-13T11:43:40;36.50;37.30
38020;DHT22;23829;51.350;17.286;2023-07-13T11:46:26;36.20;39.20
38020;DHT22;23829;51.350;17.286;2023-07-13T11:48:53;36.20;38.20
38020;DHT22;23829;51.350;17.286;2023-07-13T11:51:26;36.40;37.60
38020;DHT22;23829;51.350;17.286;2023-07-13T11:53:55;36.50;38.80
38020;DHT22;23829;51.350;17.286;2023-07-13T11:56:23;36.40;39.10
38020;DHT22;23829;51.350;17.286;2023-07-13T11:58:52;36.10;39.30
38020;DHT22;23829;51.350;17.286;2023-07-13T12:01:28;36.10;39.40
38020;DHT22;23829;51.350;17.286;2023-07-13T12:04:01;36.60;38.40
38020;DHT22;23829;51.350;17.286;2023-07-13T12:09:00;36.40;37.90
38020;DHT22;23829;51.350;17.286;2023-07-13T12:11:30;36.60;38.50
38020;DHT22;23829;51.350;17.286;2023-07-13T12:13:56;36.40;38.20
38020;DHT22;23829;51.350;17.286;2023-07-13T12:18:53;36.70;36.50
38020;DHT22;23829;51.350;17.286;2023-07-13T12:21:25;36.80;37.70
38020;DHT22;23829;51.350;17.286;2023-07-13T12:23:53;36.80;37.40
38020;DHT22;23829;51.350;17.286;2023-07-13T12:26:19;36.80;39.00
38020;DHT22;23829;51.350;17.286;2023-07-13T12:28:51;36.70;38.10
38020;DHT22;23829;51.350;17.286;2023-07-13T12:36:24;36.80;38.10
38020;DHT22;23829;51.350;17.286;2023-07-13T12:38:51;37.00;36.80
38020;DHT22;23829;51.350;17.286;2023-07-13T12:41:17;36.90;39.30
38020;DHT22;23829;51.350;17.286;2023-07-13T12:43:45;36.80;37.30
38020;DHT22;23829;51.350;17.286;2023-07-13T12:46:20;36.80;38.40
38020;DHT22;23829;51.350;17.286;2023-07-13T12:48:54;36.90;37.60
38020;DHT22;23829;51.350;17.286;2023-07-13T12:51:25;36.70;37.00
38020;DHT22;23829;51.350;17.286;2023-07-13T12:54:18;36.60;36.10
38020;DHT22;23829;51.350;17.286;2023-07-13T12:56:45;36.70;35.60
38020;DHT22;23829;51.350;17.286;2023-07-13T12:59:19;36.70;35.50
38020;DHT22;23829;51.350;17.286;2023-07-13T13:01:47;36.60;36.80
38020;DHT22;23829;51.350;17.286;2023-07-13T13:04:16;36.50;37.00
38020;DHT22;23829;51.350;17.286;2023-07-13T13:06:42;36.90;34.70
38020;DHT22;23829;51.350;17.286;2023-07-13T13:09:15;37.00;35.30
38020;DHT22;23829;51.350;17.286;2023-07-13T13:11:41;37.00;37.20
38020;DHT22;23829;51.350;17.286;2023-07-13T13:14:08;37.20;33.80
38020;DHT22;23829;51.350;17.286;2023-07-13T13:16:53;37.20;33.70
38020;DHT22;23829;51.350;17.286;2023-07-13T13:19:24;36.80;34.40
38020;DHT22;23829;51.350;17.286;2023-07-13T13:21:53;37.20;33.40
38020;DHT22;23829;51.350;17.286;2023-07-13T13:24:24;37.10;34.10
38020;DHT22;23829;51.350;17.286;2023-07-13T13:26:52;37.10;33.80
38020;DHT22;23829;51.350;17.286;2023-07-13T13:29:21;37.20;35.60
38020;DHT22;23829;51.350;17.286;2023-07-13T13:31:50;37.30;33.90
38020;DHT22;23829;51.350;17.286;2023-07-13T13:34:18;37.50;33.70
38020;DHT22;23829;51.350;17.286;2023-07-13T13:36:47;37.40;34.30
38020;DHT22;23829;51.350;17.286;2023-07-13T13:41:58;37.60;33.60
38020;DHT22;23829;51.350;17.286;2023-07-13T13:44:25;37.60;31.80
38020;DHT22;23829;51.350;17.286;2023-07-13T13:46:53;37.30;34.20
38020;DHT22;23829;51.350;17.286;2023-07-13T13:49:26;37.50;31.80
38020;DHT22;23829;51.350;17.286;2023-07-13T13:51:54;37.60;31.60
38020;DHT22;23829;51.350;17.286;2023-07-13T13:54:21;37.70;32.50
38020;DHT22;23829;51.350;17.286;2023-07-13T13:56:50;37.50;34.00
38020;DHT22;23829;51.350;17.286;2023-07-13T13:59:17;37.30;34.80
38020;DHT22;23829;51.350;17.286;2023-07-13T14:01:46;37.50;33.20
38020;DHT22;23829;51.350;17.286;2023-07-13T14:04:21;37.60;32.20
38020;DHT22;23829;51.350;17.286;2023-07-13T14:06:48;37.50;33.00
38020;DHT22;23829;51.350;17.286;2023-07-13T14:09:18;37.60;32.10
38020;DHT22;23829;51.350;17.286;2023-07-13T14:11:46;37.80;29.80
38020;DHT22;23829;51.350;17.286;2023-07-13T14:14:23;37.80;29.60
38020;DHT22;23829;51.350;17.286;2023-07-13T14:16:51;37.80;30.00
38020;DHT22;23829;51.350;17.286;2023-07-13T14:19:21;37.70;31.60
38020;DHT22;23829;51.350;17.286;2023-07-13T14:21:47;37.70;32.30
38020;DHT22;23829;51.350;17.286;2023-07-13T14:24:15;37.60;32.60
38020;DHT22;23829;51.350;17.286;2023-07-13T14:26:42;37.70;29.40
38020;DHT22;23829;51.350;17.286;2023-07-13T14:29:14;37.90;31.40
38020;DHT22;23829;51.350;17.286;2023-07-13T14:31:41;37.80;31.70
38020;DHT22;23829;51.350;17.286;2023-07-13T14:34:10;37.80;33.20
38020;DHT22;23829;51.350;17.286;2023-07-13T14:36:40;37.80;32.60
38020;DHT22;23829;51.350;17.286;2023-07-13T14:39:16;37.90;31.60
38020;DHT22;23829;51.350;17.286;2023-07-13T14:41:44;37.80;31.80
38020;DHT22;23829;51.350;17.286;2023-07-13T14:44:15;37.80;31.80
38020;DHT22;23829;51.350;17.286;2023-07-13T14:46:44;37.90;31.10
38020;DHT22;23829;51.350;17.286;2023-07-13T14:49:32;37.70;31.30
38020;DHT22;23829;51.350;17.286;2023-07-13T14:52:01;37.50;32.10
38020;DHT22;23829;51.350;17.286;2023-07-13T14:54:28;37.40;32.30
38020;DHT22;23829;51.350;17.286;2023-07-13T14:56:54;36.70;33.10
38020;DHT22;23829;51.350;17.286;2023-07-13T14:59:20;36.30;33.70
38020;DHT22;23829;51.350;17.286;2023-07-13T15:01:50;35.80;35.40
38020;DHT22;23829;51.350;17.286;2023-07-13T15:04:17;35.30;36.30
38020;DHT22;23829;51.350;17.286;2023-07-13T15:06:59;35.40;36.90
38020;DHT22;23829;51.350;17.286;2023-07-13T15:09:27;34.40;37.70
38020;DHT22;23829;51.350;17.286;2023-07-13T15:11:56;34.40;38.60
38020;DHT22;23829;51.350;17.286;2023-07-13T15:14:26;34.20;38.20
38020;DHT22;23829;51.350;17.286;2023-07-13T15:16:54;34.40;38.90
38020;DHT22;23829;51.350;17.286;2023-07-13T15:19:22;33.90;38.90
38020;DHT22;23829;51.350;17.286;2023-07-13T15:21:50;34.30;38.90
38020;DHT22;23829;51.350;17.286;2023-07-13T15:24:18;34.00;38.90
38020;DHT22;23829;51.350;17.286;2023-07-13T15:26:46;33.90;39.30
38020;DHT22;23829;51.350;17.286;2023-07-13T15:29:16;34.20;40.00
38020;DHT22;23829;51.350;17.286;2023-07-13T15:31:42;34.40;38.90
38020;DHT22;23829;51.350;17.286;2023-07-13T15:34:14;34.60;39.50
38020;DHT22;23829;51.350;17.286;2023-07-13T15:36:41;34.60;39.40
38020;DHT22;23829;51.350;17.286;2023-07-13T15:39:14;34.70;40.10
38020;DHT22;23829;51.350;17.286;2023-07-13T15:41:42;34.90;40.40
38020;DHT22;23829;51.350;17.286;2023-07-13T15:44:30;34.80;39.00
38020;DHT22;23829;51.350;17.286;2023-07-13T15:46:57;34.80;37.70
38020;DHT22;23829;51.350;17.286;2023-07-13T15:49:26;34.80;38.10
38020;DHT22;23829;51.350;17.286;2023-07-13T15:51:53;34.80;37.90
38020;DHT22;23829;51.350;17.286;2023-07-13T15:54:21;34.70;38.10
38020;DHT22;23829;51.350;17.286;2023-07-13T15:56:54;34.40;38.60
38020;DHT22;23829;51.350;17.286;2023-07-13T15:59:21;34.50;39.00
38020;DHT22;23829;51.350;17.286;2023-07-13T16:01:48;34.60;38.80
38020;DHT22;23829;51.350;17.286;2023-07-13T16:04:16;34.60;38.70
38020;DHT22;23829;51.350;17.286;2023-07-13T16:06:46;34.70;38.10
38020;DHT22;23829;51.350;17.286;2023-07-13T16:09:19;34.80;36.30
38020;DHT22;23829;51.350;17.286;2023-07-13T16:11:46;35.00;36.90
38020;DHT22;23829;51.350;17.286;2023-07-13T16:14:14;35.00;36.80
38020;DHT22;23829;51.350;17.286;2023-07-13T16:16:41;35.20;36.70
38020;DHT22;23829;51.350;17.286;2023-07-13T16:19:09;35.40;36.90
38020;DHT22;23829;51.350;17.286;2023-07-13T16:21:44;35.40;36.40
38020;DHT22;23829;51.350;17.286;2023-07-13T16:24:22;35.40;36.00